sensor_id;sensor_type;location;lat;lon;timestamp;P1;durP1;ratioP1;P2;durP2;ratioP2
4829;SDS011;2429;52.586;14.322;2024-03-08T00:00:19;20.95;;;11.73;;
4829;SDS011;2429;52.586;14.322;2024-03-08T00:05:42;22.48;;;11.52;;
4829;SDS011;2429;52.586;14.322;2024-03-08T00:10:47;23.42;;;12.70;;
4829;SDS011;2429;52.586;14.322;2024-03-08T00:15:51;25.98;;;12.50;;
4829;SDS011;2429;52.586;14.322;2024-03-08T00:20:54;21.35;;;11.55;;
4829;SDS011;2429;52.586;14.322;2024-03-08T00:25:59;23.27;;;12.48;;
4829;SDS011;2429;52.586;14.322;2024-03-08T00:31:02;24.60;;;13.50;;
4829;SDS011;2429;52.586;14.322;2024-03-08T00:36:06;24.27;;;11.95;;
4829;SDS011;2429;52.586;14.322;2024-03-08T00:41:11;22.20;;;12.90;;
4829;SDS011;2429;52.586;14.322;2024-03-08T00:46:14;20.35;;;10.38;;
4829;SDS011;2429;52.586;14.322;2024-03-08T00:51:18;24.77;;;12.63;;
4829;SDS011;2429;52.586;14.322;2024-03-08T00:56:22;19.55;;;11.00;;
4829;SDS011;2429;52.586;14.322;2024-03-08T01:01:26;25.15;;;11.98;;
4829;SDS011;2429;52.586;14.322;2024-03-08T01:06:30;22.90;;;11.25;;
4829;SDS011;2429;52.586;14.322;2024-03-08T01:11:34;21.92;;;11.95;;
4829;SDS011;2429;52.586;14.322;2024-03-08T01:16:38;22.15;;;11.32;;
4829;SDS011;2429;52.586;14.322;2024-03-08T01:21:41;25.65;;;11.75;;
4829;SDS011;2429;52.586;14.322;2024-03-08T01:26:46;23.55;;;12.88;;
4829;SDS011;2429;52.586;14.322;2024-03-08T01:36:54;22.67;;;12.40;;
4829;SDS011;2429;52.586;14.322;2024-03-08T01:41:59;23.65;;;12.13;;
4829;SDS011;2429;52.586;14.322;2024-03-08T01:47:03;22.25;;;11.88;;
4829;SDS011;2429;52.586;14.322;2024-03-08T01:52:06;22.98;;;11.57;;
4829;SDS011;2429;52.586;14.322;2024-03-08T01:57:11;24.40;;;12.40;;
4829;SDS011;2429;52.586;14.322;2024-03-08T02:02:15;25.33;;;11.85;;
4829;SDS011;2429;52.586;14.322;2024-03-08T02:07:21;24.23;;;12.02;;
4829;SDS011;2429;52.586;14.322;2024-03-08T02:12:26;23.50;;;10.93;;
4829;SDS011;2429;52.586;14.322;2024-03-08T02:17:30;23.98;;;10.85;;
4829;SDS011;2429;52.586;14.322;2024-03-08T02:22:35;23.27;;;11.50;;
4829;SDS011;2429;52.586;14.322;2024-03-08T02:27:39;24.23;;;12.00;;
4829;SDS011;2429;52.586;14.322;2024-03-08T02:32:42;23.95;;;10.60;;
4829;SDS011;2429;52.586;14.322;2024-03-08T02:37:47;22.52;;;10.90;;
4829;SDS011;2429;52.586;14.322;2024-03-08T02:47:53;25.50;;;11.85;;
4829;SDS011;2429;52.586;14.322;2024-03-08T02:52:59;22.60;;;10.98;;
4829;SDS011;2429;52.586;14.322;2024-03-08T02:58:02;19.95;;;12.10;;
4829;SDS011;2429;52.586;14.322;2024-03-08T03:03:06;23.20;;;11.90;;
4829;SDS011;2429;52.586;14.322;2024-03-08T03:08:11;25.00;;;11.82;;
4829;SDS011;2429;52.586;14.322;2024-03-08T03:13:15;22.75;;;11.20;;
4829;SDS011;2429;52.586;14.322;2024-03-08T03:18:18;21.73;;;12.15;;
4829;SDS011;2429;52.586;14.322;2024-03-08T03:23:24;24.73;;;12.70;;
4829;SDS011;2429;52.586;14.322;2024-03-08T03:38:37;21.85;;;11.88;;
4829;SDS011;2429;52.586;14.322;2024-03-08T03:43:40;23.63;;;10.60;;
4829;SDS011;2429;52.586;14.322;2024-03-08T03:48:45;25.50;;;12.63;;
4829;SDS011;2429;52.586;14.322;2024-03-08T03:53:50;24.60;;;12.85;;
4829;SDS011;2429;52.586;14.322;2024-03-08T03:58:53;22.73;;;11.10;;
4829;SDS011;2429;52.586;14.322;2024-03-08T04:03:56;23.67;;;11.63;;
4829;SDS011;2429;52.586;14.322;2024-03-08T04:09:01;21.42;;;11.38;;
4829;SDS011;2429;52.586;14.322;2024-03-08T04:14:05;25.83;;;12.45;;
4829;SDS011;2429;52.586;14.322;2024-03-08T04:19:08;22.88;;;11.95;;
4829;SDS011;2429;52.586;14.322;2024-03-08T04:24:13;23.23;;;11.07;;
4829;SDS011;2429;52.586;14.322;2024-03-08T04:29:17;25.73;;;11.88;;
4829;SDS011;2429;52.586;14.322;2024-03-08T04:34:20;24.55;;;11.48;;
4829;SDS011;2429;52.586;14.322;2024-03-08T04:39:25;22.40;;;11.95;;
4829;SDS011;2429;52.586;14.322;2024-03-08T04:44:29;21.45;;;10.38;;
4829;SDS011;2429;52.586;14.322;2024-03-08T04:49:33;26.55;;;11.98;;
4829;SDS011;2429;52.586;14.322;2024-03-08T04:54:38;22.52;;;11.93;;
4829;SDS011;2429;52.586;14.322;2024-03-08T04:59:41;23.38;;;11.82;;
4829;SDS011;2429;52.586;14.322;2024-03-08T05:04:44;26.55;;;12.07;;
4829;SDS011;2429;52.586;14.322;2024-03-08T05:09:49;32.08;;;15.18;;
4829;SDS011;2429;52.586;14.322;2024-03-08T05:14:54;34.03;;;15.85;;
4829;SDS011;2429;52.586;14.322;2024-03-08T05:19:57;42.85;;;17.90;;
4829;SDS011;2429;52.586;14.322;2024-03-08T05:25:02;35.05;;;16.52;;
4829;SDS011;2429;52.586;14.322;2024-03-08T05:30:05;32.58;;;15.80;;
4829;SDS011;2429;52.586;14.322;2024-03-08T05:35:10;31.15;;;15.73;;
4829;SDS011;2429;52.586;14.322;2024-03-08T05:40:15;31.65;;;14.98;;
4829;SDS011;2429;52.586;14.322;2024-03-08T05:45:22;31.70;;;14.70;;
4829;SDS011;2429;52.586;14.322;2024-03-08T05:50:26;30.35;;;13.90;;
4829;SDS011;2429;52.586;14.322;2024-03-08T05:55:31;28.77;;;14.35;;
4829;SDS011;2429;52.586;14.322;2024-03-08T06:00:36;26.20;;;13.32;;
4829;SDS011;2429;52.586;14.322;2024-03-08T06:05:40;29.92;;;13.07;;
4829;SDS011;2429;52.586;14.322;2024-03-08T06:10:45;26.73;;;14.25;;
4829;SDS011;2429;52.586;14.322;2024-03-08T06:15:51;34.53;;;13.23;;
4829;SDS011;2429;52.586;14.322;2024-03-08T06:20:54;27.65;;;14.23;;
4829;SDS011;2429;52.586;14.322;2024-03-08T06:25:59;29.05;;;14.00;;
4829;SDS011;2429;52.586;14.322;2024-03-08T06:31:02;31.35;;;15.02;;
4829;SDS011;2429;52.586;14.322;2024-03-08T06:36:06;29.40;;;15.27;;
4829;SDS011;2429;52.586;14.322;2024-03-08T06:41:11;28.85;;;15.73;;
4829;SDS011;2429;52.586;14.322;2024-03-08T06:46:17;25.08;;;13.43;;
4829;SDS011;2429;52.586;14.322;2024-03-08T06:51:22;29.23;;;14.35;;
4829;SDS011;2429;52.586;14.322;2024-03-08T06:56:27;42.78;;;19.58;;
4829;SDS011;2429;52.586;14.322;2024-03-08T07:01:31;30.15;;;14.57;;
4829;SDS011;2429;52.586;14.322;2024-03-08T07:06:36;30.00;;;14.63;;
4829;SDS011;2429;52.586;14.322;2024-03-08T07:11:41;27.60;;;14.48;;
4829;SDS011;2429;52.586;14.322;2024-03-08T07:16:46;33.38;;;15.73;;
4829;SDS011;2429;52.586;14.322;2024-03-08T07:21:49;29.85;;;15.65;;
4829;SDS011;2429;52.586;14.322;2024-03-08T07:26:54;34.97;;;17.33;;
4829;SDS011;2429;52.586;14.322;2024-03-08T07:31:57;35.30;;;17.00;;
4829;SDS011;2429;52.586;14.322;2024-03-08T07:37:14;34.80;;;18.00;;
4829;SDS011;2429;52.586;14.322;2024-03-08T07:42:18;36.85;;;17.80;;
4829;SDS011;2429;52.586;14.322;2024-03-08T07:47:23;38.70;;;17.90;;
4829;SDS011;2429;52.586;14.322;2024-03-08T07:52:28;38.15;;;18.38;;
4829;SDS011;2429;52.586;14.322;2024-03-08T07:57:32;34.60;;;17.60;;
4829;SDS011;2429;52.586;14.322;2024-03-08T08:02:36;75.72;;;32.92;;
4829;SDS011;2429;52.586;14.322;2024-03-08T08:07:43;39.38;;;19.85;;
4829;SDS011;2429;52.586;14.322;2024-03-08T08:12:51;42.22;;;20.98;;
4829;SDS011;2429;52.586;14.322;2024-03-08T08:17:55;39.85;;;19.48;;
4829;SDS011;2429;52.586;14.322;2024-03-08T08:22:58;40.70;;;19.75;;
4829;SDS011;2429;52.586;14.322;2024-03-08T08:28:03;47.47;;;23.27;;
4829;SDS011;2429;52.586;14.322;2024-03-08T08:33:06;44.97;;;19.52;;
4829;SDS011;2429;52.586;14.322;2024-03-08T08:38:10;42.00;;;20.10;;
4829;SDS011;2429;52.586;14.322;2024-03-08T08:43:16;41.38;;;20.98;;
4829;SDS011;2429;52.586;14.322;2024-03-08T08:48:19;42.58;;;20.50;;
4829;SDS011;2429;52.586;14.322;2024-03-08T08:53:23;36.17;;;18.15;;
4829;SDS011;2429;52.586;14.322;2024-03-08T08:58:27;36.50;;;17.58;;
4829;SDS011;2429;52.586;14.322;2024-03-08T09:03:30;35.67;;;18.80;;
4829;SDS011;2429;52.586;14.322;2024-03-08T09:08:36;34.60;;;18.60;;
4829;SDS011;2429;52.586;14.322;2024-03-08T09:13:43;36.70;;;17.85;;
4829;SDS011;2429;52.586;14.322;2024-03-08T09:18:47;34.42;;;16.10;;
4829;SDS011;2429;52.586;14.322;2024-03-08T09:23:50;30.92;;;15.95;;
4829;SDS011;2429;52.586;14.322;2024-03-08T09:28:55;33.20;;;17.17;;
4829;SDS011;2429;52.586;14.322;2024-03-08T09:33:58;27.25;;;14.82;;
4829;SDS011;2429;52.586;14.322;2024-03-08T09:39:01;26.52;;;14.65;;
4829;SDS011;2429;52.586;14.322;2024-03-08T09:44:06;23.58;;;13.10;;
4829;SDS011;2429;52.586;14.322;2024-03-08T09:49:10;27.90;;;14.25;;
4829;SDS011;2429;52.586;14.322;2024-03-08T09:54:14;23.00;;;12.48;;
4829;SDS011;2429;52.586;14.322;2024-03-08T09:59:26;26.90;;;13.45;;
4829;SDS011;2429;52.586;14.322;2024-03-08T10:04:48;22.48;;;11.63;;
4829;SDS011;2429;52.586;14.322;2024-03-08T10:09:55;28.73;;;14.80;;
4829;SDS011;2429;52.586;14.322;2024-03-08T10:14:59;26.48;;;14.82;;
4829;SDS011;2429;52.586;14.322;2024-03-08T10:20:03;28.08;;;14.27;;
4829;SDS011;2429;52.586;14.322;2024-03-08T10:25:16;24.80;;;13.73;;
4829;SDS011;2429;52.586;14.322;2024-03-08T10:35:25;24.63;;;13.88;;
4829;SDS011;2429;52.586;14.322;2024-03-08T10:40:29;24.05;;;12.70;;
4829;SDS011;2429;52.586;14.322;2024-03-08T10:45:35;27.52;;;14.38;;
4829;SDS011;2429;52.586;14.322;2024-03-08T10:50:39;25.30;;;13.52;;
4829;SDS011;2429;52.586;14.322;2024-03-08T10:55:47;22.63;;;14.05;;
4829;SDS011;2429;52.586;14.322;2024-03-08T11:00:57;23.25;;;12.95;;
4829;SDS011;2429;52.586;14.322;2024-03-08T11:06:00;25.15;;;12.90;;
4829;SDS011;2429;52.586;14.322;2024-03-08T11:11:04;26.90;;;15.50;;
4829;SDS011;2429;52.586;14.322;2024-03-08T11:16:09;26.30;;;13.57;;
4829;SDS011;2429;52.586;14.322;2024-03-08T11:21:13;27.60;;;13.50;;
4829;SDS011;2429;52.586;14.322;2024-03-08T11:26:19;23.05;;;14.07;;
4829;SDS011;2429;52.586;14.322;2024-03-08T11:31:24;26.23;;;13.68;;
4829;SDS011;2429;52.586;14.322;2024-03-08T11:36:30;25.92;;;14.27;;
4829;SDS011;2429;52.586;14.322;2024-03-08T11:41:38;25.95;;;13.82;;
4829;SDS011;2429;52.586;14.322;2024-03-08T11:46:44;30.15;;;13.82;;
4829;SDS011;2429;52.586;14.322;2024-03-08T11:51:51;24.67;;;13.50;;
4829;SDS011;2429;52.586;14.322;2024-03-08T11:56:55;23.50;;;13.45;;
4829;SDS011;2429;52.586;14.322;2024-03-08T12:02:04;24.13;;;13.40;;
4829;SDS011;2429;52.586;14.322;2024-03-08T12:07:09;24.50;;;13.68;;
4829;SDS011;2429;52.586;14.322;2024-03-08T12:12:14;21.05;;;11.02;;
4829;SDS011;2429;52.586;14.322;2024-03-08T12:17:18;24.20;;;12.38;;
4829;SDS011;2429;52.586;14.322;2024-03-08T12:22:24;20.45;;;10.85;;
4829;SDS011;2429;52.586;14.322;2024-03-08T12:27:28;22.60;;;12.18;;
4829;SDS011;2429;52.586;14.322;2024-03-08T12:32:32;21.17;;;11.65;;
4829;SDS011;2429;52.586;14.322;2024-03-08T12:37:36;23.23;;;13.23;;
4829;SDS011;2429;52.586;14.322;2024-03-08T12:42:40;19.17;;;10.52;;
4829;SDS011;2429;52.586;14.322;2024-03-08T12:47:45;18.33;;;10.60;;
4829;SDS011;2429;52.586;14.322;2024-03-08T12:52:48;19.00;;;10.45;;
4829;SDS011;2429;52.586;14.322;2024-03-08T12:57:54;19.77;;;10.38;;
4829;SDS011;2429;52.586;14.322;2024-03-08T13:02:59;17.25;;;9.98;;
4829;SDS011;2429;52.586;14.322;2024-03-08T13:08:04;19.40;;;9.95;;
4829;SDS011;2429;52.586;14.322;2024-03-08T13:13:07;16.10;;;9.52;;
4829;SDS011;2429;52.586;14.322;2024-03-08T13:18:12;17.52;;;10.20;;
4829;SDS011;2429;52.586;14.322;2024-03-08T13:23:17;15.20;;;9.60;;
4829;SDS011;2429;52.586;14.322;2024-03-08T13:28:21;18.38;;;9.75;;
4829;SDS011;2429;52.586;14.322;2024-03-08T13:33:31;18.38;;;10.18;;
4829;SDS011;2429;52.586;14.322;2024-03-08T13:38:37;15.15;;;8.63;;
4829;SDS011;2429;52.586;14.322;2024-03-08T13:43:40;13.38;;;8.70;;
4829;SDS011;2429;52.586;14.322;2024-03-08T13:48:45;15.77;;;9.18;;
4829;SDS011;2429;52.586;14.322;2024-03-08T13:53:49;12.82;;;8.43;;
4829;SDS011;2429;52.586;14.322;2024-03-08T13:58:52;16.15;;;8.88;;
4829;SDS011;2429;52.586;14.322;2024-03-08T14:03:59;17.35;;;8.30;;
4829;SDS011;2429;52.586;14.322;2024-03-08T14:09:02;14.63;;;7.47;;
4829;SDS011;2429;52.586;14.322;2024-03-08T14:14:06;16.15;;;8.05;;
4829;SDS011;2429;52.586;14.322;2024-03-08T14:19:12;11.85;;;6.90;;
4829;SDS011;2429;52.586;14.322;2024-03-08T14:24:17;11.82;;;7.32;;
4829;SDS011;2429;52.586;14.322;2024-03-08T14:29:20;14.98;;;8.75;;
4829;SDS011;2429;52.586;14.322;2024-03-08T14:34:25;13.30;;;6.60;;
4829;SDS011;2429;52.586;14.322;2024-03-08T14:39:29;10.27;;;6.70;;
4829;SDS011;2429;52.586;14.322;2024-03-08T14:44:32;11.88;;;6.97;;
4829;SDS011;2429;52.586;14.322;2024-03-08T14:49:36;11.70;;;6.88;;
4829;SDS011;2429;52.586;14.322;2024-03-08T14:54:40;10.98;;;6.90;;
4829;SDS011;2429;52.586;14.322;2024-03-08T14:59:45;14.55;;;6.85;;
4829;SDS011;2429;52.586;14.322;2024-03-08T15:04:49;12.05;;;6.65;;
4829;SDS011;2429;52.586;14.322;2024-03-08T15:09:59;10.13;;;7.20;;
4829;SDS011;2429;52.586;14.322;2024-03-08T15:15:03;12.30;;;7.35;;
4829;SDS011;2429;52.586;14.322;2024-03-08T15:20:11;9.38;;;6.55;;
4829;SDS011;2429;52.586;14.322;2024-03-08T15:25:18;9.25;;;6.43;;
4829;SDS011;2429;52.586;14.322;2024-03-08T15:30:22;13.95;;;7.80;;
4829;SDS011;2429;52.586;14.322;2024-03-08T15:35:29;11.43;;;6.60;;
4829;SDS011;2429;52.586;14.322;2024-03-08T15:40:34;28.58;;;12.95;;
4829;SDS011;2429;52.586;14.322;2024-03-08T15:45:37;12.05;;;6.68;;
4829;SDS011;2429;52.586;14.322;2024-03-08T15:50:42;11.75;;;7.03;;
4829;SDS011;2429;52.586;14.322;2024-03-08T15:55:45;14.88;;;8.35;;
4829;SDS011;2429;52.586;14.322;2024-03-08T16:00:49;14.30;;;8.00;;
4829;SDS011;2429;52.586;14.322;2024-03-08T16:05:55;13.82;;;8.18;;
4829;SDS011;2429;52.586;14.322;2024-03-08T16:10:59;26.83;;;12.40;;
4829;SDS011;2429;52.586;14.322;2024-03-08T16:16:07;14.35;;;8.05;;
4829;SDS011;2429;52.586;14.322;2024-03-08T16:21:12;15.20;;;8.15;;
4829;SDS011;2429;52.586;14.322;2024-03-08T16:26:16;23.73;;;12.85;;
4829;SDS011;2429;52.586;14.322;2024-03-08T16:31:19;17.70;;;8.80;;
4829;SDS011;2429;52.586;14.322;2024-03-08T16:36:24;16.45;;;8.88;;
4829;SDS011;2429;52.586;14.322;2024-03-08T16:41:29;17.15;;;8.82;;
4829;SDS011;2429;52.586;14.322;2024-03-08T16:46:32;14.95;;;8.40;;
4829;SDS011;2429;52.586;14.322;2024-03-08T16:51:40;16.58;;;8.55;;
4829;SDS011;2429;52.586;14.322;2024-03-08T16:56:44;32.17;;;19.25;;
4829;SDS011;2429;52.586;14.322;2024-03-08T17:01:48;19.92;;;11.77;;
4829;SDS011;2429;52.586;14.322;2024-03-08T17:06:53;15.20;;;9.10;;
4829;SDS011;2429;52.586;14.322;2024-03-08T17:11:59;17.42;;;8.15;;
4829;SDS011;2429;52.586;14.322;2024-03-08T17:17:06;16.83;;;9.15;;
4829;SDS011;2429;52.586;14.322;2024-03-08T19:36:21;20.27;;;11.23;;
4829;SDS011;2429;52.586;14.322;2024-03-08T19:41:25;21.15;;;11.52;;
4829;SDS011;2429;52.586;14.322;2024-03-08T19:46:30;40.75;;;23.05;;
4829;SDS011;2429;52.586;14.322;2024-03-08T19:51:43;26.00;;;13.70;;
4829;SDS011;2429;52.586;14.322;2024-03-08T19:56:47;21.23;;;12.25;;
4829;SDS011;2429;52.586;14.322;2024-03-08T20:01:51;22.23;;;14.27;;
4829;SDS011;2429;52.586;14.322;2024-03-08T20:06:55;19.15;;;12.32;;
4829;SDS011;2429;52.586;14.322;2024-03-08T20:17:02;20.15;;;12.32;;
4829;SDS011;2429;52.586;14.322;2024-03-08T20:22:07;21.77;;;12.63;;
4829;SDS011;2429;52.586;14.322;2024-03-08T20:32:14;19.08;;;12.18;;
4829;SDS011;2429;52.586;14.322;2024-03-08T20:37:19;20.70;;;12.20;;
4829;SDS011;2429;52.586;14.322;2024-03-08T20:42:24;22.33;;;12.65;;
4829;SDS011;2429;52.586;14.322;2024-03-08T20:47:27;20.70;;;12.70;;
4829;SDS011;2429;52.586;14.322;2024-03-08T20:52:31;21.65;;;12.75;;
4829;SDS011;2429;52.586;14.322;2024-03-08T20:57:37;24.35;;;12.00;;
4829;SDS011;2429;52.586;14.322;2024-03-08T21:02:42;39.55;;;19.05;;
4829;SDS011;2429;52.586;14.322;2024-03-08T21:07:47;22.30;;;12.95;;
4829;SDS011;2429;52.586;14.322;2024-03-08T21:12:50;22.88;;;13.32;;
4829;SDS011;2429;52.586;14.322;2024-03-08T21:17:56;26.77;;;15.98;;
4829;SDS011;2429;52.586;14.322;2024-03-08T21:23:01;28.08;;;15.10;;
4829;SDS011;2429;52.586;14.322;2024-03-08T21:28:06;25.48;;;13.52;;
4829;SDS011;2429;52.586;14.322;2024-03-08T21:33:09;20.58;;;11.52;;
4829;SDS011;2429;52.586;14.322;2024-03-08T21:43:18;26.38;;;13.88;;
4829;SDS011;2429;52.586;14.322;2024-03-08T21:48:21;23.40;;;14.65;;
4829;SDS011;2429;52.586;14.322;2024-03-08T21:53:26;26.65;;;14.73;;
4829;SDS011;2429;52.586;14.322;2024-03-08T21:58:36;22.88;;;13.32;;
4829;SDS011;2429;52.586;14.322;2024-03-08T22:03:42;24.85;;;14.27;;
4829;SDS011;2429;52.586;14.322;2024-03-08T22:08:46;20.95;;;13.68;;
4829;SDS011;2429;52.586;14.322;2024-03-08T22:13:50;26.50;;;14.05;;
4829;SDS011;2429;52.586;14.322;2024-03-08T22:18:53;26.70;;;17.20;;
4829;SDS011;2429;52.586;14.322;2024-03-08T22:23:57;29.27;;;17.45;;
4829;SDS011;2429;52.586;14.322;2024-03-08T22:29:01;31.25;;;17.17;;
4829;SDS011;2429;52.586;14.322;2024-03-08T22:34:05;29.50;;;16.00;;
4829;SDS011;2429;52.586;14.322;2024-03-08T22:39:09;28.23;;;15.02;;
4829;SDS011;2429;52.586;14.322;2024-03-08T22:44:13;26.38;;;15.77;;
4829;SDS011;2429;52.586;14.322;2024-03-08T22:49:16;25.83;;;14.85;;
4829;SDS011;2429;52.586;14.322;2024-03-08T22:54:21;26.48;;;15.10;;
4829;SDS011;2429;52.586;14.322;2024-03-08T22:59:26;25.98;;;13.73;;
4829;SDS011;2429;52.586;14.322;2024-03-08T23:04:30;27.40;;;14.25;;
4829;SDS011;2429;52.586;14.322;2024-03-08T23:09:37;28.42;;;15.32;;
4829;SDS011;2429;52.586;14.322;2024-03-08T23:14:40;27.20;;;14.70;;
4829;SDS011;2429;52.586;14.322;2024-03-08T23:19:43;25.20;;;13.73;;
4829;SDS011;2429;52.586;14.322;2024-03-08T23:29:52;21.48;;;12.68;;
4829;SDS011;2429;52.586;14.322;2024-03-08T23:34:58;30.23;;;13.98;;
4829;SDS011;2429;52.586;14.322;2024-03-08T23:40:03;25.70;;;13.77;;
4829;SDS011;2429;52.586;14.322;2024-03-08T23:45:09;23.58;;;13.63;;
4829;SDS011;2429;52.586;14.322;2024-03-08T23:50:14;28.60;;;14.98;;
4829;SDS011;2429;52.586;14.322;2024-03-08T23:55:22;23.58;;;13.65;;
